createdAt,value
2022-10-13T00:00:50.042Z,16.08
2022-10-13T00:03:17.508Z,16.38
2022-10-13T00:05:47.721Z,16.67
2022-10-13T00:08:19.159Z,15.05
2022-10-13T00:10:48.115Z,16.00
2022-10-13T00:13:15.306Z,16.05
2022-10-13T00:15:44.901Z,16.73
2022-10-13T00:18:11.752Z,15.35
2022-10-13T00:20:48.103Z,14.88
2022-10-13T00:23:16.324Z,15.73
2022-10-13T00:25:45.520Z,17.33
2022-10-13T00:28:15.036Z,14.35
2022-10-13T00:30:42.827Z,16.90
2022-10-13T00:33:11.203Z,15.73
2022-10-13T00:35:46.726Z,15.85
2022-10-13T00:38:16.219Z,17.70
2022-10-13T00:40:49.115Z,16.98
2022-10-13T00:43:21.360Z,16.25
2022-10-13T00:45:52.037Z,15.73
2022-10-13T00:48:30.172Z,16.65
2022-10-13T00:50:58.797Z,16.20
2022-10-13T00:53:31.308Z,16.88
2022-10-13T00:55:59.172Z,17.42
2022-10-13T00:58:31.142Z,18.60
2022-10-13T01:00:59.321Z,17.90
2022-10-13T01:03:26.817Z,17.13
2022-10-13T01:05:58.104Z,16.42
2022-10-13T01:08:29.038Z,17.27
2022-10-13T01:14:11.505Z,15.73
2022-10-13T01:16:50.643Z,15.68
2022-10-13T01:19:35.698Z,17.05
2022-10-13T01:22:26.462Z,18.10
2022-10-13T01:25:11.169Z,15.93
2022-10-13T01:28:27.861Z,17.30
2022-10-13T01:31:27.862Z,16.40
2022-10-13T01:34:19.071Z,16.40
2022-10-13T01:37:07.338Z,15.88
2022-10-13T01:39:45.143Z,16.58
2022-10-13T01:42:22.610Z,16.55
2022-10-13T01:44:54.667Z,16.88
2022-10-13T01:47:23.110Z,12.43
2022-10-13T01:49:52.758Z,15.60
2022-10-13T01:52:22.920Z,15.73
2022-10-13T01:54:51.938Z,16.08
2022-10-13T01:57:41.856Z,15.07
2022-10-13T02:00:20.255Z,16.58
2022-10-13T02:03:11.904Z,16.70
2022-10-13T02:05:51.528Z,16.30
2022-10-13T02:08:45.961Z,16.55
2022-10-13T02:11:16.203Z,16.35
2022-10-13T02:13:54.487Z,16.27
2022-10-13T02:16:23.875Z,16.95
2022-10-13T02:18:51.493Z,17.38
2022-10-13T02:21:18.869Z,16.88
2022-10-13T02:23:45.723Z,16.63
2022-10-13T02:26:13.945Z,17.05
2022-10-13T02:28:41.035Z,16.70
2022-10-13T02:31:09.283Z,16.88
2022-10-13T02:33:36.044Z,16.95
2022-10-13T02:36:03.473Z,15.50
2022-10-13T02:38:30.769Z,15.77
2022-10-13T02:40:58.197Z,15.57
2022-10-13T02:43:24.904Z,17.23
2022-10-13T02:45:52.145Z,17.00
2022-10-13T02:48:18.718Z,16.67
2022-10-13T02:50:47.617Z,15.65
2022-10-13T02:53:14.233Z,17.05
2022-10-13T02:55:41.803Z,17.33
2022-10-13T02:58:08.401Z,16.45
2022-10-13T03:00:35.782Z,16.60
2022-10-13T03:03:02.833Z,17.10
2022-10-13T03:05:30.087Z,16.48
2022-10-13T03:07:57.126Z,16.73
2022-10-13T03:10:24.463Z,18.23
2022-10-13T03:12:51.607Z,18.65
2022-10-13T03:15:18.958Z,18.90
2022-10-13T03:17:46.627Z,17.85
2022-10-13T03:20:13.894Z,18.45
2022-10-13T03:22:40.491Z,19.17
2022-10-13T03:25:08.030Z,19.00
2022-10-13T03:27:34.959Z,17.95
2022-10-13T03:30:02.154Z,18.52
2022-10-13T03:32:32.509Z,17.42
2022-10-13T03:34:59.148Z,17.42
2022-10-13T03:37:28.625Z,17.38
2022-10-13T03:39:55.200Z,17.77
2022-10-13T03:42:22.901Z,17.15
2022-10-13T03:44:55.184Z,18.20
2022-10-13T03:47:23.688Z,17.60
2022-10-13T03:49:50.324Z,17.98
2022-10-13T03:52:18.109Z,18.75
2022-10-13T03:54:44.889Z,19.35
2022-10-13T03:57:12.202Z,17.02
2022-10-13T03:59:42.014Z,18.77
2022-10-13T04:02:09.246Z,17.85
2022-10-13T04:04:37.542Z,18.23
2022-10-13T04:07:04.576Z,18.50
2022-10-13T04:09:31.259Z,19.25
2022-10-13T04:11:58.538Z,18.50
2022-10-13T04:14:25.209Z,18.67
2022-10-13T04:16:52.515Z,19.55
2022-10-13T04:19:19.173Z,18.58
2022-10-13T04:21:46.506Z,18.88
2022-10-13T04:24:17.429Z,18.80
2022-10-13T04:26:46.482Z,18.60
2022-10-13T04:29:13.049Z,17.88
2022-10-13T04:31:42.989Z,18.95
2022-10-13T04:34:10.231Z,18.77
2022-10-13T04:36:37.850Z,20.15
2022-10-13T04:39:04.896Z,20.70
2022-10-13T04:41:33.599Z,19.08
2022-10-13T04:44:02.300Z,19.20
2022-10-13T04:46:30.047Z,19.63
2022-10-13T04:48:57.413Z,18.88
2022-10-13T04:51:29.356Z,19.87
2022-10-13T04:53:57.279Z,18.88
2022-10-13T04:56:25.374Z,18.70
2022-10-13T04:58:51.952Z,20.40
2022-10-13T05:01:22.504Z,19.45
2022-10-13T05:03:57.232Z,18.65
2022-10-13T05:06:27.548Z,21.80
2022-10-13T05:08:57.510Z,19.73
2022-10-13T05:11:26.900Z,21.15
2022-10-13T05:13:54.167Z,20.90
2022-10-13T05:16:22.420Z,21.30
2022-10-13T05:18:54.433Z,20.75
2022-10-13T05:21:27.368Z,21.63
2022-10-13T05:23:55.797Z,22.88
2022-10-13T05:26:29.374Z,22.50
2022-10-13T05:29:00.826Z,21.23
2022-10-13T05:31:32.274Z,22.30
2022-10-13T05:33:59.325Z,22.15
2022-10-13T05:36:32.590Z,22.98
2022-10-13T05:39:02.634Z,24.33
2022-10-13T05:41:30.435Z,23.35
2022-10-13T05:44:03.881Z,22.38
2022-10-13T05:46:31.281Z,22.63
2022-10-13T05:48:57.981Z,24.13
2022-10-13T05:51:32.226Z,24.67
2022-10-13T05:54:12.230Z,23.30
2022-10-13T05:56:44.943Z,24.08
2022-10-13T05:59:16.135Z,27.48
2022-10-13T06:01:47.498Z,25.83
2022-10-13T06:04:25.882Z,25.65
2022-10-13T06:06:52.621Z,33.42
2022-10-13T06:09:20.258Z,32.97
2022-10-13T06:11:46.936Z,26.63
2022-10-13T06:14:13.853Z,23.33
2022-10-13T06:16:41.666Z,25.80
2022-10-13T06:19:08.347Z,21.95
2022-10-13T06:21:36.068Z,20.05
2022-10-13T06:24:03.117Z,20.58
2022-10-13T06:26:30.475Z,19.80
2022-10-13T06:28:59.739Z,20.33
2022-10-13T06:31:27.868Z,19.10
2022-10-13T06:33:54.993Z,19.85
2022-10-13T06:36:22.756Z,18.23
2022-10-13T06:38:49.917Z,18.98
2022-10-13T06:41:20.044Z,19.10
2022-10-13T06:43:47.556Z,19.40
2022-10-13T06:46:16.482Z,17.88
2022-10-13T06:48:43.504Z,18.20
2022-10-13T06:51:12.059Z,19.48
2022-10-13T06:53:38.676Z,17.80
2022-10-13T06:56:07.387Z,17.52
2022-10-13T06:58:38.355Z,16.55
2022-10-13T07:01:06.764Z,17.63
2022-10-13T07:03:33.761Z,17.65
2022-10-13T07:06:05.483Z,18.05
2022-10-13T07:08:33.897Z,17.48
2022-10-13T07:11:15.866Z,17.58
2022-10-13T07:13:47.677Z,17.45
2022-10-13T07:16:15.930Z,17.80
2022-10-13T07:18:42.643Z,17.80
2022-10-13T07:21:10.079Z,18.08
2022-10-13T07:23:36.745Z,18.95
2022-10-13T07:26:12.114Z,18.90
2022-10-13T07:28:39.581Z,18.95
2022-10-13T07:31:15.550Z,18.65
2022-10-13T07:33:46.924Z,19.27
2022-10-13T07:36:16.406Z,17.80
2022-10-13T07:38:44.122Z,41.58
2022-10-13T07:41:12.604Z,19.80
2022-10-13T07:43:39.988Z,17.55
2022-10-13T07:46:10.226Z,16.80
2022-10-13T07:48:37.528Z,16.85
2022-10-13T07:51:10.239Z,16.95
2022-10-13T07:56:07.675Z,23.23
2022-10-13T07:58:37.972Z,26.50
2022-10-13T08:01:04.974Z,37.03
2022-10-13T08:03:34.423Z,35.17
2022-10-13T08:06:02.303Z,23.15
2022-10-13T08:08:30.602Z,21.35
2022-10-13T08:11:02.481Z,19.40
2022-10-13T08:13:32.301Z,22.20
2022-10-13T08:16:07.773Z,19.25
2022-10-13T08:18:35.148Z,20.33
2022-10-13T08:23:50.442Z,17.60
2022-10-13T08:26:23.932Z,18.52
2022-10-13T08:29:23.505Z,29.00
2022-10-13T08:31:40.375Z,18.63
2022-10-13T08:34:08.898Z,18.42
2022-10-13T08:36:35.961Z,17.52
2022-10-13T08:39:03.969Z,17.90
2022-10-13T08:41:35.769Z,17.08
2022-10-13T08:44:59.275Z,17.45
2022-10-13T08:47:12.113Z,14.80
2022-10-13T08:49:41.510Z,17.10
2022-10-13T08:52:18.185Z,16.38
2022-10-13T08:54:45.965Z,17.55
2022-10-13T08:57:12.640Z,16.52
2022-10-13T08:59:40.113Z,18.08
2022-10-13T09:02:13.886Z,18.45
2022-10-13T09:04:44.454Z,16.92
2022-10-13T09:07:15.708Z,16.85
2022-10-13T09:09:43.581Z,19.30
2022-10-13T09:12:13.211Z,16.70
2022-10-13T09:14:41.567Z,15.45
2022-10-13T09:17:18.902Z,15.10
2022-10-13T09:20:17.547Z,15.80
2022-10-13T09:22:45.108Z,16.33
2022-10-13T09:25:22.930Z,15.32
2022-10-13T09:27:58.263Z,15.40
2022-10-13T09:30:36.476Z,15.40
2022-10-13T09:33:09.770Z,15.60
2022-10-13T09:38:13.097Z,16.15
2022-10-13T09:40:40.799Z,16.80
2022-10-13T09:43:28.008Z,14.52
2022-10-13T09:45:55.041Z,13.70
2022-10-13T09:48:26.901Z,14.70
2022-10-13T09:50:55.410Z,14.55
2022-10-13T09:53:29.045Z,13.60
2022-10-13T09:56:14.889Z,14.57
2022-10-13T09:58:58.869Z,13.35
2022-10-13T10:01:34.117Z,12.40
2022-10-13T10:04:06.754Z,11.75
2022-10-13T10:06:34.735Z,12.15
2022-10-13T10:09:26.011Z,11.77
2022-10-13T10:11:54.843Z,11.43
2022-10-13T10:14:25.460Z,10.93
2022-10-13T10:16:58.934Z,10.35
2022-10-13T10:19:53.263Z,10.77
2022-10-13T10:22:23.226Z,10.05
2022-10-13T10:24:54.151Z,11.02
2022-10-13T10:27:30.762Z,9.50
2022-10-13T10:30:05.234Z,10.07
2022-10-13T10:33:13.018Z,9.30
2022-10-13T10:36:00.936Z,10.00
2022-10-13T10:38:34.300Z,8.90
2022-10-13T10:41:23.396Z,9.73
2022-10-13T10:44:12.960Z,9.30
2022-10-13T10:46:45.689Z,9.40
2022-10-13T10:51:49.684Z,7.95
2022-10-13T10:54:35.665Z,7.97
2022-10-13T10:57:16.052Z,7.97
2022-10-13T10:59:52.819Z,8.32
2022-10-13T11:02:39.025Z,9.00
2022-10-13T11:05:06.547Z,8.13
2022-10-13T11:07:34.012Z,7.72
2022-10-13T11:10:03.309Z,7.93
2022-10-13T11:13:08.602Z,8.32
2022-10-13T11:15:46.801Z,7.68
2022-10-13T11:18:51.839Z,7.75
2022-10-13T11:21:18.597Z,7.85
2022-10-13T11:23:49.316Z,8.50
2022-10-13T11:26:31.108Z,9.02
2022-10-13T11:29:00.810Z,8.60
2022-10-13T11:31:35.202Z,9.02
2022-10-13T11:34:03.611Z,9.10
2022-10-13T11:36:50.195Z,8.82
2022-10-13T11:39:42.023Z,9.05
2022-10-13T11:42:12.098Z,9.60
2022-10-13T11:45:39.255Z,9.55
2022-10-13T11:48:42.530Z,8.82
2022-10-13T11:51:31.482Z,9.50
2022-10-13T11:54:31.692Z,9.88
2022-10-13T11:56:58.559Z,9.93
2022-10-13T11:59:31.168Z,11.93
2022-10-13T12:02:10.371Z,10.32
2022-10-13T12:04:42.799Z,12.57
2022-10-13T12:07:15.629Z,11.18
2022-10-13T12:09:51.519Z,10.48
2022-10-13T12:12:22.932Z,9.77
2022-10-13T12:14:52.668Z,10.60
2022-10-13T12:17:24.175Z,11.88
2022-10-13T12:19:51.460Z,12.75
2022-10-13T12:22:18.736Z,12.60
2022-10-13T12:25:06.920Z,10.60
2022-10-13T12:27:46.849Z,11.57
2022-10-13T12:30:24.200Z,11.18
2022-10-13T12:32:54.254Z,11.05
2022-10-13T12:35:24.653Z,9.77
2022-10-13T12:37:53.936Z,10.63
2022-10-13T12:40:21.594Z,11.77
2022-10-13T12:42:49.876Z,11.68
2022-10-13T12:45:19.143Z,11.10
2022-10-13T12:47:47.986Z,10.95
2022-10-13T12:50:29.664Z,10.15
2022-10-13T12:53:08.942Z,9.98
2022-10-13T12:55:45.143Z,10.02
2022-10-13T12:58:26.509Z,10.00
2022-10-13T13:01:27.136Z,9.70
2022-10-13T13:03:57.369Z,9.13
2022-10-13T13:06:31.987Z,9.05
2022-10-13T13:09:28.404Z,9.15
2022-10-13T13:12:10.434Z,9.95
2022-10-13T13:14:38.231Z,12.02
2022-10-13T13:17:23.487Z,14.95
2022-10-13T13:20:00.923Z,14.82
2022-10-13T13:22:27.685Z,12.50
2022-10-13T13:24:54.483Z,11.98
2022-10-13T13:27:37.608Z,14.98
2022-10-13T13:30:06.759Z,14.15
2022-10-13T13:32:34.727Z,11.75
2022-10-13T13:35:01.414Z,14.90
2022-10-13T13:37:57.140Z,14.70
2022-10-13T13:40:26.123Z,12.07
2022-10-13T13:42:53.199Z,11.95
2022-10-13T13:45:22.188Z,11.05
2022-10-13T13:47:50.457Z,10.00
2022-10-13T13:50:34.900Z,14.02
2022-10-13T13:53:02.787Z,12.68
2022-10-13T13:55:30.079Z,14.02
2022-10-13T13:57:59.097Z,13.40
2022-10-13T14:00:25.792Z,14.35
2022-10-13T14:02:56.913Z,12.23
2022-10-13T14:05:23.984Z,13.23
2022-10-13T14:07:54.161Z,13.30
2022-10-13T14:10:20.777Z,13.60
2022-10-13T14:12:48.520Z,13.88
2022-10-13T14:15:15.509Z,13.02
2022-10-13T14:17:42.225Z,12.73
2022-10-13T14:20:09.481Z,15.55
2022-10-13T14:22:39.266Z,13.85
2022-10-13T14:25:07.322Z,14.70
2022-10-13T14:27:35.154Z,15.52
2022-10-13T14:30:02.594Z,16.88
2022-10-13T14:32:29.393Z,15.15
2022-10-13T14:34:56.556Z,17.65
2022-10-13T14:37:25.074Z,15.52
2022-10-13T14:39:54.490Z,15.82
2022-10-13T14:42:21.071Z,15.32
2022-10-13T14:44:47.999Z,15.93
2022-10-13T14:47:14.743Z,14.80
2022-10-13T14:49:42.067Z,16.02
2022-10-13T14:52:09.873Z,17.10
2022-10-13T14:54:41.161Z,16.55
2022-10-13T14:57:15.319Z,16.63
2022-10-13T14:59:42.750Z,18.25
2022-10-13T15:02:11.139Z,16.13
2022-10-13T15:04:38.833Z,17.17
2022-10-13T15:07:06.175Z,16.63
2022-10-13T15:09:52.439Z,16.38
2022-10-13T15:12:23.236Z,17.67
2022-10-13T15:14:50.176Z,20.05
2022-10-13T15:17:17.118Z,17.90
2022-10-13T15:19:43.785Z,17.95
2022-10-13T15:22:11.012Z,25.45
2022-10-13T15:24:38.302Z,20.80
2022-10-13T15:27:04.961Z,19.08
2022-10-13T15:29:32.314Z,18.40
2022-10-13T15:32:09.267Z,18.38
2022-10-13T15:34:38.805Z,18.45
2022-10-13T15:37:05.912Z,18.63
2022-10-13T15:39:33.426Z,19.33
2022-10-13T15:42:00.045Z,21.35
2022-10-13T15:44:27.049Z,19.92
2022-10-13T15:47:07.364Z,19.23
2022-10-13T15:49:39.705Z,18.95
2022-10-13T15:52:06.341Z,20.17
2022-10-13T15:54:33.794Z,21.67
2022-10-13T15:57:00.429Z,21.02
2022-10-13T15:59:27.345Z,19.23
2022-10-13T16:01:53.903Z,18.23
2022-10-13T16:04:20.874Z,20.98
2022-10-13T16:06:47.486Z,19.38
2022-10-13T16:09:14.102Z,19.30
2022-10-13T16:11:40.753Z,19.30
2022-10-13T16:14:07.849Z,21.08
2022-10-13T16:16:34.463Z,19.48
2022-10-13T16:19:01.469Z,19.35
2022-10-13T16:21:28.094Z,20.40
2022-10-13T16:23:55.126Z,25.58
2022-10-13T16:26:22.145Z,24.50
2022-10-13T16:28:49.170Z,22.98
2022-10-13T16:31:16.775Z,20.35
2022-10-13T16:33:45.779Z,19.98
2022-10-13T16:36:15.340Z,19.02
2022-10-13T16:38:46.118Z,19.00
2022-10-13T16:41:18.038Z,19.67
2022-10-13T16:43:47.467Z,19.95
2022-10-13T16:46:17.359Z,19.08
2022-10-13T16:48:46.331Z,20.55
2022-10-13T16:51:18.943Z,19.98
2022-10-13T16:53:53.887Z,21.33
2022-10-13T16:56:24.523Z,20.95
2022-10-13T16:58:54.364Z,21.48
2022-10-13T17:01:21.431Z,19.00
2022-10-13T17:03:50.305Z,20.80
2022-10-13T17:06:19.771Z,20.55
2022-10-13T17:08:54.126Z,22.88
2022-10-13T17:11:29.874Z,20.50
2022-10-13T17:13:58.751Z,20.73
2022-10-13T17:16:31.827Z,19.83
2022-10-13T17:18:59.452Z,21.55
2022-10-13T17:21:32.937Z,22.30
2022-10-13T17:24:03.345Z,24.65
2022-10-13T17:26:31.402Z,23.40
2022-10-13T17:28:58.726Z,23.20
2022-10-13T17:31:25.391Z,23.13
2022-10-13T17:33:53.082Z,24.20
2022-10-13T17:36:28.014Z,23.30
2022-10-13T17:38:56.819Z,23.48
2022-10-13T17:41:24.417Z,23.70
2022-10-13T17:43:52.474Z,24.83
2022-10-13T17:46:41.611Z,24.92
2022-10-13T17:49:12.151Z,24.25
2022-10-13T17:51:40.636Z,26.08
2022-10-13T17:54:11.439Z,29.88
2022-10-13T17:56:40.376Z,33.92
2022-10-13T17:59:07.052Z,26.60
2022-10-13T18:01:34.805Z,25.98
2022-10-13T18:04:04.986Z,28.10
2022-10-13T18:06:38.693Z,26.00
2022-10-13T18:09:08.257Z,25.77
2022-10-13T18:11:35.141Z,27.02
2022-10-13T18:14:02.737Z,25.60
2022-10-13T18:16:29.581Z,27.55
2022-10-13T18:18:57.091Z,27.38
2022-10-13T18:21:26.700Z,29.73
2022-10-13T18:23:59.050Z,28.48
2022-10-13T18:26:27.493Z,30.00
2022-10-13T18:28:54.859Z,28.23
2022-10-13T18:31:21.494Z,28.52
2022-10-13T18:33:52.201Z,27.80
2022-10-13T18:36:28.231Z,27.55
2022-10-13T18:39:00.154Z,30.15
2022-10-13T18:41:26.826Z,31.33
2022-10-13T18:43:54.346Z,29.58
2022-10-13T18:46:23.662Z,29.95
2022-10-13T18:48:50.464Z,28.25
2022-10-13T18:51:18.650Z,29.10
2022-10-13T18:53:47.901Z,30.42
2022-10-13T18:56:25.199Z,30.35
2022-10-13T18:58:58.472Z,35.17
2022-10-13T19:01:28.494Z,32.63
2022-10-13T19:03:55.729Z,31.13
2022-10-13T19:06:26.760Z,31.42
2022-10-13T19:09:00.875Z,30.45
2022-10-13T19:11:28.641Z,31.30
2022-10-13T19:13:55.680Z,38.30
2022-10-13T19:16:24.032Z,30.60
2022-10-13T19:18:51.103Z,29.60
2022-10-13T19:21:19.129Z,29.75
2022-10-13T19:23:47.145Z,26.80
2022-10-13T19:26:23.730Z,25.30
2022-10-13T19:29:05.391Z,25.67
2022-10-13T19:31:33.443Z,23.77
2022-10-13T19:34:02.532Z,24.02
2022-10-13T19:36:39.436Z,22.75
2022-10-13T19:39:15.741Z,23.55
2022-10-13T19:41:44.384Z,23.63
2022-10-13T19:44:11.352Z,23.23
2022-10-13T19:46:42.066Z,22.42
2022-10-13T19:49:09.301Z,21.08
2022-10-13T19:51:37.460Z,23.67
2022-10-13T19:54:04.858Z,22.73
2022-10-13T19:56:32.713Z,19.60
2022-10-13T19:58:59.688Z,18.90
2022-10-13T20:01:27.537Z,18.08
2022-10-13T20:03:54.509Z,17.25
2022-10-13T20:06:21.536Z,16.60
2022-10-13T20:08:49.288Z,16.65
2022-10-13T20:11:23.420Z,13.88
2022-10-13T20:13:51.820Z,14.48
2022-10-13T20:16:21.634Z,15.38
2022-10-13T20:18:53.198Z,14.57
2022-10-13T20:21:20.533Z,13.63
2022-10-13T20:23:47.752Z,13.55
2022-10-13T20:26:15.256Z,14.48
2022-10-13T20:28:43.804Z,14.93
2022-10-13T20:31:13.024Z,15.07
2022-10-13T20:33:40.588Z,19.17
2022-10-13T20:36:14.510Z,16.55
2022-10-13T20:38:41.230Z,15.52
2022-10-13T20:41:16.806Z,19.30
2022-10-13T20:43:44.225Z,16.65
2022-10-13T20:46:14.936Z,15.20
2022-10-13T20:49:09.329Z,14.40
2022-10-13T20:51:29.682Z,14.27
2022-10-13T20:53:56.267Z,13.52
2022-10-13T20:56:25.256Z,13.75
2022-10-13T20:58:52.374Z,12.90
2022-10-13T21:01:21.007Z,13.82
2022-10-13T21:03:54.738Z,13.30
2022-10-13T21:06:23.213Z,15.80
2022-10-13T21:08:50.038Z,14.70
2022-10-13T21:11:20.292Z,12.77
2022-10-13T21:13:48.469Z,13.80
2022-10-13T21:16:18.051Z,14.10
2022-10-13T21:18:48.010Z,13.50
2022-10-13T21:21:17.130Z,14.30
2022-10-13T21:23:43.857Z,15.02
2022-10-13T21:26:14.386Z,14.63
2022-10-13T21:28:44.251Z,15.65
2022-10-13T21:31:14.643Z,16.00
2022-10-13T21:33:42.610Z,15.93
2022-10-13T21:36:20.696Z,16.00
2022-10-13T21:38:50.172Z,15.60
2022-10-13T21:41:17.532Z,14.25
2022-10-13T21:43:44.164Z,15.65
2022-10-13T21:46:23.372Z,15.90
2022-10-13T21:48:57.303Z,16.40
2022-10-13T21:51:26.145Z,16.30
2022-10-13T21:53:54.829Z,17.45
2022-10-13T21:56:23.235Z,16.83
2022-10-13T21:58:50.082Z,16.85
2022-10-13T22:01:18.569Z,18.23
2022-10-13T22:03:48.933Z,18.10
2022-10-13T22:06:20.048Z,18.58
2022-10-13T22:08:48.950Z,18.98
2022-10-13T22:11:22.972Z,18.33
2022-10-13T22:13:49.790Z,18.33
2022-10-13T22:16:19.966Z,18.83
2022-10-13T22:18:47.222Z,19.92
2022-10-13T22:21:20.799Z,19.08
2022-10-13T22:23:47.725Z,18.83
2022-10-13T22:26:17.078Z,19.13
2022-10-13T22:28:45.640Z,20.23
2022-10-13T22:31:13.661Z,19.02
2022-10-13T22:33:42.003Z,20.92
2022-10-13T22:36:11.246Z,21.13
2022-10-13T22:38:38.174Z,20.40
2022-10-13T22:41:08.258Z,19.83
2022-10-13T22:43:35.329Z,21.33
2022-10-13T22:46:16.603Z,21.77
2022-10-13T22:48:43.865Z,16.60
2022-10-13T22:51:14.307Z,22.63
2022-10-13T22:53:40.915Z,22.60
2022-10-13T22:56:11.759Z,23.50
2022-10-13T22:58:38.445Z,23.60
2022-10-13T23:01:15.162Z,23.15
2022-10-13T23:03:42.328Z,22.73
2022-10-13T23:06:14.575Z,23.70
2022-10-13T23:08:41.651Z,24.23
2022-10-13T23:11:09.317Z,26.73
2022-10-13T23:13:36.459Z,25.05
2022-10-13T23:16:12.980Z,27.77
2022-10-13T23:18:42.812Z,27.50
2022-10-13T23:21:24.669Z,25.95
2022-10-13T23:23:59.626Z,28.65
2022-10-13T23:26:28.220Z,28.48
2022-10-13T23:28:56.748Z,29.02
2022-10-13T23:31:25.657Z,29.48
2022-10-13T23:33:52.344Z,30.35
2022-10-13T23:36:22.680Z,29.52
2022-10-13T23:38:53.493Z,30.50
2022-10-13T23:41:20.793Z,32.42
2022-10-13T23:43:47.394Z,31.23
2022-10-13T23:46:14.645Z,33.78
2022-10-13T23:48:41.481Z,33.38
2022-10-13T23:51:14.783Z,32.58
2022-10-13T23:56:10.134Z,33.55
2022-10-13T23:58:41.189Z,32.33
